Time;durP1;ratioP1;P1;durP2;ratioP2;P2;SDS_P1;SDS_P2;PMS_P1;PMS_P2;Temp;Humidity;BMP_temperature;BMP_pressure;BME280_temperature;BME280_humidity;BME280_pressure;Samples;Min_cycle;Max_cycle;Signal;HPM_P1;HPM_P2
2022/03/07 00:00:56;;;;;;;10.83;5.67;;;;;;;1.26;100.00;96547.28;5114430;28;20929;-37
2022/03/07 00:03:24;;;;;;;8.13;3.90;;;;;;;1.33;100.00;96540.31;5114168;28;20442;-38
2022/03/07 00:05:52;;;;;;;6.53;4.47;;;;;;;1.37;100.00;96543.41;5114178;28;20453;-38
2022/03/07 00:08:19;;;;;;;7.70;4.27;;;;;;;1.45;100.00;96545.91;5104178;28;20434;-38
2022/03/07 00:10:46;;;;;;;5.83;3.70;;;;;;;1.54;100.00;96544.78;5114105;28;20434;-37
2022/03/07 00:13:14;;;;;;;6.40;4.50;;;;;;;1.47;100.00;96517.75;5114076;28;20437;-37
2022/03/07 00:15:41;;;;;;;6.40;3.63;;;;;;;1.61;100.00;96537.84;5103652;28;20486;-38
2022/03/07 00:18:09;;;;;;;6.10;4.23;;;;;;;1.68;100.00;96545.75;5093573;28;20439;-37
2022/03/07 00:20:37;;;;;;;9.43;3.53;;;;;;;1.75;100.00;96540.59;5093702;28;20438;-38
2022/03/07 00:23:04;;;;;;;26.53;10.30;;;;;;;1.84;100.00;96534.22;5097147;28;20447;-37
2022/03/07 00:25:31;;;;;;;18.80;8.73;;;;;;;1.86;100.00;96526.97;5092615;28;20442;-37
2022/03/07 00:27:58;;;;;;;11.47;6.70;;;;;;;1.93;100.00;96527.84;5093683;28;20439;-38
2022/03/07 00:30:25;;;;;;;15.37;6.43;;;;;;;1.98;100.00;96530.72;5093800;28;20504;-37
2022/03/07 00:32:53;;;;;;;14.60;7.23;;;;;;;2.01;100.00;96530.34;5096923;28;20441;-37
2022/03/07 00:35:21;;;;;;;13.80;8.93;;;;;;;2.03;100.00;96533.56;5113710;28;20577;-37
2022/03/07 00:37:48;;;;;;;17.77;8.80;;;;;;;2.09;100.00;96537.25;5109574;28;20501;-37
2022/03/07 00:40:16;;;;;;;14.83;9.67;;;;;;;2.12;100.00;96520.34;5111521;28;20438;-38
2022/03/07 00:42:43;;;;;;;20.20;9.73;;;;;;;2.15;100.00;96525.19;5114149;28;20446;-38
2022/03/07 00:45:12;;;;;;;18.40;10.53;;;;;;;2.17;100.00;96528.44;5113707;28;20441;-39
2022/03/07 00:47:39;;;;;;;29.50;13.17;;;;;;;2.18;100.00;96519.59;5113829;28;20434;-38
2022/03/07 00:50:08;;;;;;;7.23;6.13;;;;;;;2.19;100.00;96526.44;5113921;28;20442;-38
2022/03/07 00:52:36;;;;;;;7.73;5.77;;;;;;;2.20;100.00;96522.84;5095382;28;20475;-39
2022/03/07 00:55:04;;;;;;;10.17;6.43;;;;;;;2.21;100.00;96521.81;5093856;28;20471;-38
2022/03/07 00:57:31;;;;;;;14.60;9.23;;;;;;;2.15;100.00;96515.56;5093340;28;20440;-38
2022/03/07 00:59:59;;;;;;;15.63;7.53;;;;;;;2.22;100.00;96521.66;5093296;28;20934;-39
2022/03/07 01:02:26;;;;;;;11.57;7.43;;;;;;;2.23;100.00;96522.44;5093526;28;20439;-37
2022/03/07 01:04:55;;;;;;;14.30;5.23;;;;;;;2.25;100.00;96523.06;5093514;28;20492;-38
2022/03/07 01:07:23;;;;;;;20.93;10.00;;;;;;;2.21;100.00;96511.34;5093525;28;20498;-39
2022/03/07 01:09:51;;;;;;;29.77;15.07;;;;;;;2.29;100.00;96526.94;5106989;28;20804;-37
2022/03/07 01:12:19;;;;;;;27.90;13.30;;;;;;;2.29;100.00;96532.19;5113572;28;20954;-38
2022/03/07 01:14:46;;;;;;;23.60;12.90;;;;;;;2.27;100.00;96530.75;5113686;28;20491;-38
2022/03/07 01:17:13;;;;;;;16.57;10.23;;;;;;;2.27;100.00;96533.38;5113158;28;20453;-39
2022/03/07 01:19:40;;;;;;;24.83;10.63;;;;;;;2.32;100.00;96542.25;5113706;28;20448;-38
2022/03/07 01:22:07;;;;;;;12.93;7.77;;;;;;;2.34;100.00;96529.78;5113704;28;20451;-37
2022/03/07 01:24:36;;;;;;;11.30;6.93;;;;;;;2.33;100.00;96533.41;5106216;28;20445;-39
2022/03/07 01:27:05;;;;;;;9.03;6.40;;;;;;;2.31;100.00;96537.22;5093208;28;20450;-38
2022/03/07 01:29:32;;;;;;;14.60;6.10;;;;;;;2.19;99.99;96531.69;5112239;28;20437;-37
2022/03/07 01:31:59;;;;;;;7.60;4.17;;;;;;;2.23;97.81;96532.94;5113027;28;20446;-38
2022/03/07 01:34:27;;;;;;;4.73;4.20;;;;;;;2.07;97.67;96533.22;5113641;28;20545;-38
2022/03/07 01:36:54;;;;;;;6.77;3.23;;;;;;;1.96;98.85;96532.72;5112873;28;20488;-39
2022/03/07 01:39:21;;;;;;;5.30;3.70;;;;;;;1.93;99.72;96532.28;5109474;28;20437;-38
2022/03/07 01:41:48;;;;;;;5.70;3.80;;;;;;;1.92;100.00;96531.47;5117073;27;20438;-38
2022/03/07 01:44:22;;;;;;;3.73;2.80;;;;;;;1.93;100.00;96538.31;5117239;28;20798;-38
2022/03/07 01:46:49;;;;;;;6.50;4.23;;;;;;;1.92;100.00;96531.47;5115550;28;20974;-37
2022/03/07 01:49:17;;;;;;;9.90;4.00;;;;;;;1.82;99.69;96530.97;5117160;28;20452;-38
2022/03/07 01:51:45;;;;;;;8.07;4.60;;;;;;;1.84;99.91;96526.38;5114967;28;20480;-37
2022/03/07 01:54:15;;;;;;;9.57;5.40;;;;;;;1.78;100.00;96533.16;5097471;28;20894;-38
2022/03/07 01:56:45;;;;;;;7.37;4.80;;;;;;;1.76;100.00;96529.09;5096552;28;20482;-37
2022/03/07 01:59:13;;;;;;;8.00;5.07;;;;;;;1.75;100.00;96537.97;5096318;28;20489;-38
2022/03/07 02:01:42;;;;;;;9.83;5.17;;;;;;;1.75;100.00;96524.88;5096255;28;20451;-37
2022/03/07 02:04:10;;;;;;;13.00;5.80;;;;;;;1.70;100.00;96516.75;5096067;28;21044;-38
2022/03/07 02:06:38;;;;;;;5.73;4.77;;;;;;;1.74;100.00;96523.25;5104777;28;20933;-38
2022/03/07 02:09:06;;;;;;;12.03;3.83;;;;;;;1.79;100.00;96523.50;5096124;28;20489;-38
2022/03/07 02:11:33;;;;;;;12.53;6.37;;;;;;;1.77;100.00;96522.88;5096309;28;20549;-38
2022/03/07 02:14:15;;;;;;;9.60;5.47;;;;;;;1.81;100.00;96531.97;5095949;28;20443;-37
2022/03/07 02:16:44;;;;;;;10.23;5.03;;;;;;;1.82;100.00;96536.22;5095845;28;20562;-38
2022/03/07 02:19:12;;;;;;;9.17;5.00;;;;;;;1.88;100.00;96532.84;5096276;28;20439;-38
2022/03/07 02:21:43;;;;;;;18.80;7.03;;;;;;;1.92;100.00;96547.19;5103329;28;20508;-37
2022/03/07 02:24:12;;;;;;;11.07;6.37;;;;;;;1.95;100.00;96546.78;5095887;28;20914;-37
2022/03/07 02:26:40;;;;;;;18.70;8.60;;;;;;;1.99;100.00;96542.00;5113699;28;20443;-38
2022/03/07 02:29:08;;;;;;;18.97;8.40;;;;;;;1.94;100.00;96518.19;5116071;28;20452;-37
2022/03/07 02:31:36;;;;;;;17.30;7.93;;;;;;;2.07;100.00;96538.47;5117010;27;20442;-38
2022/03/07 02:34:04;;;;;;;10.50;7.10;;;;;;;2.08;100.00;96537.44;5095581;28;20518;-37
2022/03/07 02:36:31;;;;;;;10.20;5.83;;;;;;;2.10;100.00;96545.91;5096854;28;20482;-37
2022/03/07 02:38:58;;;;;;;7.90;5.20;;;;;;;2.10;100.00;96543.31;5095593;28;20504;-38
2022/03/07 02:41:27;;;;;;;5.10;4.33;;;;;;;2.13;100.00;96537.69;5095582;28;20439;-37
2022/03/07 02:43:54;;;;;;;8.77;5.60;;;;;;;2.14;100.00;96553.22;5092785;28;20444;-37
2022/03/07 02:46:21;;;;;;;7.50;4.43;;;;;;;2.17;99.86;96544.16;5114569;28;20491;-38
2022/03/07 02:48:48;;;;;;;8.57;3.90;;;;;;;2.11;98.74;96550.16;5114613;28;20968;-38
2022/03/07 02:51:16;;;;;;;9.63;4.57;;;;;;;1.93;98.40;96548.78;5108991;28;20475;-38
2022/03/07 02:53:43;;;;;;;8.50;5.97;;;;;;;1.85;99.53;96535.84;5075274;28;20437;-37
2022/03/07 02:56:10;;;;;;;7.00;4.70;;;;;;;1.77;99.50;96543.81;5075082;28;20484;-37
2022/03/07 02:58:38;;;;;;;6.10;4.10;;;;;;;1.71;100.00;96541.94;5074831;28;20451;-37
2022/03/07 03:01:06;;;;;;;3.40;3.10;;;;;;;1.64;100.00;96534.03;5075180;28;20505;-39
2022/03/07 03:03:33;;;;;;;11.40;6.10;;;;;;;1.62;100.00;96534.22;5114989;28;20446;-37
2022/03/07 03:06:00;;;;;;;6.20;5.17;;;;;;;1.60;100.00;96538.00;5114334;28;20449;-39
2022/03/07 03:08:27;;;;;;;9.53;4.63;;;;;;;1.58;100.00;96542.63;5107774;28;20438;-37
2022/03/07 03:10:57;;;;;;;6.67;4.57;;;;;;;1.58;100.00;96537.38;5115267;28;20452;-37
2022/03/07 03:13:25;;;;;;;4.63;3.23;;;;;;;1.66;100.00;96537.28;5115491;28;20547;-37
2022/03/07 03:15:54;;;;;;;8.87;4.20;;;;;;;1.73;100.00;96542.56;5114680;28;20489;-38
2022/03/07 03:18:23;;;;;;;7.77;3.90;;;;;;;1.81;100.00;96550.31;5115106;28;20899;-37
2022/03/07 03:20:52;;;;;;;4.97;3.77;;;;;;;1.88;100.00;96545.13;5113199;28;20442;-40
2022/03/07 03:23:25;;;;;;;5.70;3.50;;;;;;;1.93;100.00;96548.00;5083439;28;20439;-40
2022/03/07 03:25:53;;;;;;;4.83;3.90;;;;;;;1.96;100.00;96543.19;5094572;28;20481;-40
2022/03/07 03:28:20;;;;;;;5.63;3.97;;;;;;;1.98;100.00;96543.81;5094703;28;20443;-39
2022/03/07 03:30:48;;;;;;;5.03;3.27;;;;;;;1.97;100.00;96550.03;5094735;28;20466;-38
2022/03/07 03:33:16;;;;;;;3.33;2.93;;;;;;;2.05;100.00;96551.72;5094662;28;20447;-38
2022/03/07 03:35:43;;;;;;;5.40;3.40;;;;;;;2.09;100.00;96541.66;5096021;28;20483;-39
2022/03/07 03:38:11;;;;;;;5.80;3.40;;;;;;;2.11;100.00;96545.75;5096523;28;20450;-38
2022/03/07 03:40:39;;;;;;;6.87;4.23;;;;;;;2.14;100.00;96549.78;5103962;28;20438;-38
2022/03/07 03:43:06;;;;;;;6.37;4.03;;;;;;;2.16;99.81;96542.56;5114558;28;20929;-38
2022/03/07 03:45:33;;;;;;;5.20;3.43;;;;;;;2.18;99.94;96548.41;5114608;28;20443;-38
2022/03/07 03:48:01;;;;;;;6.10;4.20;;;;;;;2.18;99.62;96551.03;5111106;28;20941;-38
2022/03/07 03:50:29;;;;;;;4.50;4.13;;;;;;;2.12;98.77;96557.03;5094161;28;20465;-37
2022/03/07 03:52:57;;;;;;;8.13;4.50;;;;;;;2.07;98.36;96551.56;5101438;28;20435;-37
2022/03/07 03:55:24;;;;;;;6.70;3.50;;;;;;;2.01;98.28;96556.53;5093970;28;20499;-37
2022/03/07 03:57:52;;;;;;;9.33;4.57;;;;;;;1.97;99.33;96552.66;5093082;28;20439;-40
2022/03/07 04:00:20;;;;;;;7.33;5.03;;;;;;;1.99;99.53;96553.28;5076423;28;20444;-40
2022/03/07 04:02:47;;;;;;;7.30;4.77;;;;;;;1.95;99.21;96546.78;5076544;28;20447;-38
2022/03/07 04:05:16;;;;;;;4.73;3.20;;;;;;;1.96;99.17;96552.88;5093610;28;20548;-40
2022/03/07 04:07:45;;;;;;;7.37;3.73;;;;;;;1.97;99.87;96547.41;5084502;28;20447;-39
2022/03/07 04:10:14;;;;;;;7.40;3.67;;;;;;;2.01;99.43;96553.91;5090461;28;20443;-38
2022/03/07 04:12:41;;;;;;;5.87;3.57;;;;;;;1.98;99.18;96545.59;5092221;28;20526;-38
2022/03/07 04:15:10;;;;;;;24.27;9.60;;;;;;;1.97;98.55;96555.28;5093085;28;20481;-38
2022/03/07 04:17:41;;;;;;;18.13;9.87;;;;;;;1.94;99.20;96555.66;5094110;28;20855;-38
2022/03/07 04:20:09;;;;;;;15.93;8.43;;;;;;;1.84;99.03;96536.84;5090929;28;20434;-40
2022/03/07 04:22:37;;;;;;;14.80;8.00;;;;;;;1.89;99.04;96544.91;5089201;28;20447;-40
2022/03/07 04:25:08;;;;;;;8.47;4.83;;;;;;;1.79;98.92;96545.25;5073414;28;20435;-38
2022/03/07 04:27:35;;;;;;;7.67;4.40;;;;;;;1.83;99.21;96549.13;5073520;28;20436;-37
2022/03/07 04:30:04;;;;;;;10.40;7.00;;;;;;;1.81;98.78;96550.31;5072910;28;20850;-38
2022/03/07 04:32:33;;;;;;;8.53;6.27;;;;;;;1.80;99.83;96548.66;5088065;28;20443;-38
2022/03/07 04:35:03;;;;;;;10.80;5.20;;;;;;;1.78;100.00;96541.00;5098304;28;20945;-38
2022/03/07 04:37:31;;;;;;;7.70;4.47;;;;;;;1.59;99.66;96525.91;5104980;28;20540;-38
2022/03/07 04:39:59;;;;;;;6.43;4.70;;;;;;;1.75;100.00;96540.59;5114127;28;20803;-38
2022/03/07 04:42:27;;;;;;;7.57;4.60;;;;;;;1.81;100.00;96540.63;5113817;28;20812;-38
2022/03/07 04:44:54;;;;;;;6.30;4.53;;;;;;;1.86;100.00;96536.66;5113816;28;20438;-38
2022/03/07 04:47:22;;;;;;;6.20;4.80;;;;;;;1.83;100.00;96522.94;5113707;28;20446;-38
2022/03/07 04:49:49;;;;;;;7.40;3.93;;;;;;;1.95;100.00;96541.56;5113782;28;20434;-37
2022/03/07 04:52:16;;;;;;;6.10;5.00;;;;;;;1.97;100.00;96542.19;5110468;28;20475;-39
2022/03/07 04:54:44;;;;;;;2.90;2.70;;;;;;;2.01;100.00;96534.78;5113739;28;20444;-38
2022/03/07 04:57:11;;;;;;;6.90;4.90;;;;;;;2.01;100.00;96546.03;5100405;28;20843;-38
2022/03/07 04:59:40;;;;;;;15.43;8.13;;;;;;;1.95;100.00;96535.53;5093625;28;20439;-37
2022/03/07 05:02:07;;;;;;;29.60;12.30;;;;;;;2.04;100.00;96545.69;5093348;28;20447;-37
2022/03/07 05:04:34;;;;;;;17.20;10.10;;;;;;;2.05;99.89;96542.06;5093260;28;20434;-38
2022/03/07 05:07:01;;;;;;;10.63;7.20;;;;;;;2.05;99.84;96552.53;5093222;28;20449;-38
2022/03/07 05:09:29;;;;;;;9.20;5.10;;;;;;;2.03;99.67;96541.44;5098237;28;20449;-38
2022/03/07 05:11:56;;;;;;;9.07;5.03;;;;;;;2.08;99.48;96550.53;5095471;28;20777;-37
2022/03/07 05:14:23;;;;;;;11.23;4.80;;;;;;;2.08;99.02;96550.53;5097250;28;20954;-37
2022/03/07 05:16:52;;;;;;;10.43;4.90;;;;;;;2.03;98.01;96564.19;5114865;28;20493;-37
2022/03/07 05:19:19;;;;;;;11.87;8.00;;;;;;;1.96;98.18;96552.88;5117593;28;20450;-38
2022/03/07 05:21:46;;;;;;;9.50;6.70;;;;;;;1.97;98.35;96560.50;5117389;28;20438;-38
2022/03/07 05:24:14;;;;;;;8.57;6.03;;;;;;;2.01;98.54;96556.53;5108552;28;20507;-37
2022/03/07 05:26:41;;;;;;;16.73;8.70;;;;;;;2.03;98.78;96549.28;5117315;28;20445;-37
2022/03/07 05:29:08;;;;;;;29.67;9.53;;;;;;;2.04;98.44;96548.31;5117354;28;20441;-38
2022/03/07 05:31:35;;;;;;;18.03;9.23;;;;;;;2.07;98.69;96548.94;5117266;28;20452;-37
2022/03/07 05:34:04;;;;;;;10.17;6.10;;;;;;;2.00;97.85;96547.06;5115913;28;20446;-38
2022/03/07 05:36:31;;;;;;;15.23;7.97;;;;;;;1.97;97.94;96549.25;5096622;28;20840;-38
2022/03/07 05:38:58;;;;;;;12.40;7.40;;;;;;;1.97;98.08;96554.47;5099257;28;20442;-38
2022/03/07 05:41:25;;;;;;;18.00;8.00;;;;;;;1.98;98.07;96546.44;5096629;28;20448;-38
2022/03/07 05:43:53;;;;;;;22.90;18.43;;;;;;;1.99;96.38;96550.66;5096943;28;20445;-38
2022/03/07 05:46:20;;;;;;;23.20;15.47;;;;;;;1.94;97.61;96542.56;5096865;28;20458;-38
2022/03/07 05:48:47;;;;;;;14.70;11.77;;;;;;;1.99;97.85;96547.25;5096589;28;20443;-38
2022/03/07 05:51:22;;;;;;;13.30;9.30;;;;;;;1.98;96.81;96556.06;5096405;28;20478;-38
2022/03/07 05:53:50;;;;;;;24.07;11.80;;;;;;;1.89;96.45;96542.31;5104260;28;20435;-38
2022/03/07 05:56:17;;;;;;;12.27;7.87;;;;;;;1.93;94.66;96548.00;5096294;28;20945;-38
2022/03/07 05:58:44;;;;;;;21.50;10.50;;;;;;;1.91;96.58;96542.13;5096373;28;20457;-38
2022/03/07 06:01:11;;;;;;;16.73;10.20;;;;;;;1.95;97.27;96544.19;5096200;28;20938;-39
2022/03/07 06:03:39;;;;;;;18.73;9.43;;;;;;;2.01;98.12;96546.03;5096507;28;20788;-39
2022/03/07 06:06:06;;;;;;;13.30;8.77;;;;;;;2.09;98.02;96544.28;5096452;28;20446;-38
2022/03/07 06:08:35;;;;;;;13.70;7.50;;;;;;;2.08;97.10;96540.06;5098677;28;20439;-38
2022/03/07 06:11:03;;;;;;;9.30;5.43;;;;;;;2.10;97.06;96548.53;5103721;28;20854;-38
2022/03/07 06:13:30;;;;;;;9.90;5.87;;;;;;;2.09;95.85;96546.91;5116714;28;20452;-38
2022/03/07 06:15:57;;;;;;;18.10;9.67;;;;;;;2.11;96.52;96553.59;5111380;28;20807;-39
2022/03/07 06:18:25;;;;;;;47.83;20.60;;;;;;;2.01;95.08;96543.44;5095800;28;20570;-37
2022/03/07 06:20:52;;;;;;;18.83;7.60;;;;;;;1.98;96.02;96551.69;5096119;28;20447;-39
2022/03/07 06:23:20;;;;;;;62.77;22.07;;;;;;;1.99;96.49;96555.91;5106094;28;20449;-38
2022/03/07 06:25:49;;;;;;;20.97;8.87;;;;;;;2.00;96.09;96554.09;5116361;28;20442;-37
2022/03/07 06:28:16;;;;;;;37.00;14.73;;;;;;;2.04;97.15;96561.41;5116939;28;20449;-38
2022/03/07 06:30:46;;;;;;;36.60;13.53;;;;;;;2.12;97.30;96557.03;5114272;28;20438;-37
2022/03/07 06:33:14;;;;;;;18.07;8.77;;;;;;;2.09;96.66;96546.91;5116074;28;21005;-37
2022/03/07 06:35:41;;;;;;;12.80;6.50;;;;;;;2.16;96.51;96547.78;5106288;28;20474;-38
2022/03/07 06:38:08;;;;;;;15.73;7.70;;;;;;;2.17;96.80;96554.63;5102160;28;20483;-38
2022/03/07 06:40:36;;;;;;;14.60;6.00;;;;;;;2.08;95.51;96555.78;5095634;28;20446;-38
2022/03/07 06:43:05;;;;;;;7.00;5.10;;;;;;;2.00;95.76;96549.69;5105679;28;20461;-38
2022/03/07 06:45:32;;;;;;;7.17;6.17;;;;;;;2.05;96.18;96557.78;5116075;28;20438;-38
2022/03/07 06:47:59;;;;;;;14.20;6.30;;;;;;;1.93;96.21;96543.56;5109898;28;20439;-40
2022/03/07 06:50:27;;;;;;;24.93;11.40;;;;;;;2.06;97.27;96558.56;5100263;28;20522;-40
2022/03/07 06:52:54;;;;;;;15.73;8.70;;;;;;;2.15;97.81;96561.88;5095099;28;20431;-41
2022/03/07 06:55:21;;;;;;;22.23;10.73;;;;;;;2.20;97.41;96567.38;5086442;28;20447;-40
2022/03/07 06:57:49;;;;;;;22.40;12.43;;;;;;;2.29;97.56;96563.63;5080955;28;21010;-40
2022/03/07 07:03:18;;;;;;;20.53;7.17;;;;;;;2.36;96.28;96559.22;5111607;27;20547;-38
2022/03/07 07:05:45;;;;;;;13.50;6.17;;;;;;;2.36;95.78;96559.22;5111668;28;20425;-37
2022/03/07 07:08:13;;;;;;;21.17;10.50;;;;;;;2.35;95.18;96562.84;5115210;28;20548;-37
2022/03/07 07:10:40;;;;;;;20.67;11.77;;;;;;;2.32;95.22;96552.75;5111495;28;20438;-37
2022/03/07 07:13:07;;;;;;;17.03;9.27;;;;;;;2.34;95.36;96561.22;5111102;28;20457;-36
2022/03/07 07:15:34;;;;;;;24.20;12.10;;;;;;;2.43;95.65;96549.63;5111468;28;20833;-37
2022/03/07 07:18:01;;;;;;;17.40;9.20;;;;;;;2.48;95.70;96550.88;5110495;28;20529;-37
2022/03/07 07:20:30;;;;;;;19.90;10.43;;;;;;;2.53;95.72;96551.09;5111084;28;20921;-37
2022/03/07 07:22:57;;;;;;;12.40;7.60;;;;;;;2.56;95.56;96553.31;5119072;28;20481;-37
2022/03/07 07:25:24;;;;;;;25.53;13.70;;;;;;;2.63;95.41;96562.06;5110701;28;20441;-36
2022/03/07 07:27:51;;;;;;;14.67;8.33;;;;;;;2.56;94.80;96554.16;5111125;28;20450;-37
2022/03/07 07:30:22;;;;;;;17.47;8.23;;;;;;;2.60;94.19;96572.91;5110832;28;20442;-36
2022/03/07 07:32:49;;;;;;;20.03;11.83;;;;;;;2.60;94.74;96570.28;5111080;28;20477;-37
2022/03/07 07:35:17;;;;;;;27.20;14.50;;;;;;;2.67;94.82;96565.91;5128142;28;20441;-36
2022/03/07 07:37:45;;;;;;;40.00;18.17;;;;;;;2.67;94.61;96566.72;5127348;27;20437;-36
2022/03/07 07:40:12;;;;;;;26.57;11.97;;;;;;;2.71;93.80;96566.31;5130640;27;20437;-38
2022/03/07 07:42:40;;;;;;;25.47;9.50;;;;;;;2.68;91.38;96559.66;5130103;27;20543;-40
2022/03/07 07:45:08;;;;;;;28.50;12.17;;;;;;;2.65;92.51;96560.06;5109948;28;20438;-39
2022/03/07 07:47:35;;;;;;;20.50;8.80;;;;;;;2.66;92.80;96566.91;5110775;28;20445;-38
2022/03/07 07:50:02;;;;;;;19.60;9.40;;;;;;;2.70;92.94;96560.28;5110410;28;20449;-39
2022/03/07 07:52:29;;;;;;;18.23;10.33;;;;;;;2.67;91.46;96565.91;5110755;28;20469;-38
2022/03/07 07:54:58;;;;;;;21.60;11.50;;;;;;;2.61;91.37;96564.06;5110184;28;20444;-39
2022/03/07 07:57:25;;;;;;;28.17;13.17;;;;;;;2.69;92.74;96563.91;5110249;28;20947;-39
2022/03/07 08:02:33;;;;;;;31.57;17.63;;;;;;;2.54;91.99;96565.81;5116229;28;20500;-38
2022/03/07 08:05:00;;;;;;;25.53;14.27;;;;;;;2.56;92.95;96563.81;5114366;27;20458;-38
2022/03/07 08:07:27;;;;;;;11.73;9.80;;;;;;;2.63;92.86;96562.06;5109678;28;20446;-38
2022/03/07 08:09:55;;;;;;;7.23;6.53;;;;;;;2.56;91.81;96569.88;5107299;28;20520;-39
2022/03/07 08:12:23;;;;;;;10.63;5.87;;;;;;;2.46;90.85;96559.72;5129630;27;20441;-39
2022/03/07 08:14:50;;;;;;;11.13;7.50;;;;;;;2.39;92.33;96555.44;5101976;28;21102;-39
2022/03/07 08:17:18;;;;;;;12.13;7.63;;;;;;;2.39;91.64;96563.31;5079991;28;20448;-39
2022/03/07 08:19:45;;;;;;;8.20;6.00;;;;;;;2.31;91.56;96556.38;5074568;28;20462;-40
2022/03/07 08:22:12;;;;;;;7.40;5.60;;;;;;;2.29;92.17;96552.31;5075537;28;20540;-41
2022/03/07 08:24:40;;;;;;;8.83;5.83;;;;;;;2.28;92.25;96555.94;5075248;28;20954;-39
2022/03/07 08:27:07;;;;;;;7.03;4.73;;;;;;;2.31;92.95;96556.38;5078142;28;20919;-40
2022/03/07 08:29:35;;;;;;;16.70;7.90;;;;;;;2.36;93.84;96548.75;5082405;28;20443;-39
2022/03/07 08:32:03;;;;;;;24.13;12.70;;;;;;;2.49;93.53;96553.28;5095681;28;20447;-40
2022/03/07 08:34:31;;;;;;;18.83;10.90;;;;;;;2.52;91.98;96552.06;5095171;28;20447;-40
2022/03/07 08:36:59;;;;;;;16.63;9.27;;;;;;;2.51;92.30;96560.94;5086176;28;20475;-40
2022/03/07 08:39:30;;;;;;;12.50;8.80;;;;;;;2.56;92.79;96561.19;5087177;28;20451;-41
2022/03/07 08:41:57;;;;;;;11.00;7.77;;;;;;;2.63;91.71;96564.69;5091924;28;20475;-41
2022/03/07 08:44:25;;;;;;;9.77;7.47;;;;;;;2.60;92.44;96570.28;5082522;28;20924;-40
2022/03/07 08:46:57;;;;;;;14.60;8.83;;;;;;;2.66;93.08;96564.28;5074722;28;20936;-40
2022/03/07 08:49:24;;;;;;;13.73;10.60;;;;;;;2.73;91.20;96573.03;5074889;28;20432;-40
2022/03/07 08:51:54;;;;;;;11.80;8.77;;;;;;;2.74;91.12;96571.19;5074308;28;20472;-40
2022/03/07 08:54:22;;;;;;;11.90;7.50;;;;;;;2.78;91.71;96568.00;5074578;28;20455;-40
2022/03/07 08:56:49;;;;;;;6.90;4.70;;;;;;;2.83;89.13;96577.91;5075119;28;20569;-40
2022/03/07 08:59:17;;;;;;;13.10;6.87;;;;;;;2.62;89.73;96557.78;5092469;28;20449;-40
2022/03/07 09:01:44;;;;;;;14.13;7.63;;;;;;;2.70;89.55;96578.63;5094204;28;20486;-41
2022/03/07 09:04:13;;;;;;;17.90;8.80;;;;;;;2.73;91.19;96573.03;5094709;28;20445;-40
2022/03/07 09:06:41;;;;;;;20.50;11.77;;;;;;;2.82;91.68;96569.22;5095351;28;20930;-39
2022/03/07 09:09:09;;;;;;;11.10;6.83;;;;;;;2.83;90.26;96570.84;5093839;28;20859;-40
2022/03/07 09:11:36;;;;;;;20.97;11.27;;;;;;;2.89;90.96;96576.34;5094690;28;20447;-39
2022/03/07 09:16:44;;;;;;;60.00;22.60;;;;;;;2.95;91.67;96573.75;5080939;28;20440;-38
2022/03/07 09:19:13;;;;;;;40.27;19.17;;;;;;;3.11;91.79;96577.84;5074938;28;20444;-39
2022/03/07 09:21:58;;;;;;;17.23;11.10;;;;;;;3.22;90.77;96579.13;5074135;28;20525;-40
2022/03/07 09:24:26;;;;;;;10.53;7.47;;;;;;;3.10;88.31;96571.00;5088673;28;20431;-40
2022/03/07 09:26:53;;;;;;;19.07;8.80;;;;;;;3.03;89.45;96565.72;5095099;28;20990;-39
2022/03/07 09:29:20;;;;;;;17.47;11.17;;;;;;;3.13;91.01;96565.34;5094876;28;20449;-40
2022/03/07 09:31:47;;;;;;;14.53;7.23;;;;;;;3.13;89.28;96570.59;5093241;28;20914;-40
2022/03/07 09:34:16;;;;;;;11.27;6.93;;;;;;;3.11;88.96;96567.38;5095123;28;20826;-39
2022/03/07 09:36:43;;;;;;;14.80;6.10;;;;;;;3.08;87.26;96568.56;5094565;28;20534;-39
2022/03/07 09:39:10;;;;;;;19.30;10.43;;;;;;;3.10;88.53;96570.16;5095059;28;20788;-39
2022/03/07 09:41:38;;;;;;;14.17;8.80;;;;;;;3.19;88.46;96569.81;5094102;28;20528;-39
2022/03/07 09:44:06;;;;;;;11.13;6.47;;;;;;;3.26;88.09;96570.66;5094910;28;20500;-40
2022/03/07 09:46:33;;;;;;;17.67;5.60;;;;;;;3.22;87.26;96566.81;5094538;28;20443;-39
2022/03/07 09:49:00;;;;;;;8.93;6.03;;;;;;;3.01;85.83;96564.28;5094836;28;20443;-38
2022/03/07 09:51:29;;;;;;;6.67;4.57;;;;;;;3.03;87.08;96570.13;5094530;28;20451;-38
2022/03/07 09:53:56;;;;;;;9.90;6.37;;;;;;;3.02;86.62;96563.28;5094012;28;20454;-40
2022/03/07 09:56:27;;;;;;;14.13;6.70;;;;;;;3.06;88.28;96564.53;5093718;28;20455;-40
2022/03/07 09:58:57;;;;;;;6.70;4.20;;;;;;;3.00;86.80;96560.84;5094997;28;20477;-38
2022/03/07 10:01:24;;;;;;;12.10;5.87;;;;;;;3.04;88.53;96551.59;5094170;28;20561;-39
2022/03/07 10:03:53;;;;;;;49.03;23.40;;;;;;;3.31;88.58;96558.78;5093765;28;20490;-39
2022/03/07 10:06:21;;;;;;;67.43;26.80;;;;;;;3.46;89.59;96555.00;5094307;28;20768;-39
2022/03/07 10:08:55;;;;;;;17.53;10.53;;;;;;;3.58;89.08;96568.34;5094180;28;20455;-38
2022/03/07 10:11:22;;;;;;;17.47;7.77;;;;;;;3.60;87.97;96566.34;5094197;28;20789;-40
2022/03/07 10:13:51;;;;;;;23.90;7.83;;;;;;;3.65;87.76;96563.94;5093707;28;20435;-38
2022/03/07 10:16:20;;;;;;;17.83;7.63;;;;;;;3.63;88.01;96550.19;5093988;28;20884;-39
2022/03/07 10:18:52;;;;;;;25.80;11.07;;;;;;;3.71;87.37;96551.84;5091249;28;20451;-40
2022/03/07 10:21:23;;;;;;;11.27;7.47;;;;;;;3.86;87.13;96570.06;5093520;28;20520;-40
2022/03/07 10:23:56;;;;;;;23.30;10.33;;;;;;;3.97;88.37;96571.28;5093745;28;20578;-40
2022/03/07 10:26:23;;;;;;;14.50;8.17;;;;;;;3.96;87.27;96567.84;5094238;28;20443;-39
2022/03/07 10:28:55;;;;;;;21.20;9.80;;;;;;;4.02;87.87;96556.56;5094716;28;20452;-39
2022/03/07 10:31:22;;;;;;;18.00;10.47;;;;;;;4.07;87.36;96556.75;5094064;28;20454;-40
2022/03/07 10:34:01;;;;;;;22.53;13.17;;;;;;;4.10;87.28;96553.69;5093450;28;20450;-39
2022/03/07 10:36:34;;;;;;;16.40;9.73;;;;;;;4.15;87.13;96563.63;5085626;28;20530;-40
2022/03/07 10:39:05;;;;;;;29.10;14.90;;;;;;;4.04;85.43;96557.16;5089570;28;20447;-40
2022/03/07 10:41:37;;;;;;;11.53;5.40;;;;;;;3.90;83.58;96555.50;5080049;28;20430;-41
2022/03/07 10:44:06;;;;;;;7.50;6.00;;;;;;;3.73;84.71;96549.03;5092806;28;20573;-40
2022/03/07 10:46:34;;;;;;;7.20;5.60;;;;;;;3.63;85.58;96544.94;5083098;28;20813;-41
2022/03/07 10:49:01;;;;;;;19.13;10.90;;;;;;;3.56;86.48;96544.13;5072920;28;20450;-40
2022/03/07 10:51:29;;;;;;;10.73;6.90;;;;;;;3.53;87.24;96560.28;5073076;28;20440;-39
2022/03/07 10:53:56;;;;;;;10.33;6.07;;;;;;;3.53;86.97;96549.78;5073321;28;20448;-40
2022/03/07 10:56:25;;;;;;;37.47;16.50;;;;;;;3.52;88.03;96542.91;5085546;28;20438;-39
2022/03/07 10:58:54;;;;;;;19.93;9.73;;;;;;;3.52;89.16;96531.59;5093481;28;20809;-40
2022/03/07 11:01:29;;;;;;;17.73;7.53;;;;;;;3.63;89.12;96541.50;5093351;28;20478;-38
2022/03/07 11:03:57;;;;;;;11.53;6.33;;;;;;;3.55;88.86;96526.75;5093274;28;20571;-40
2022/03/07 11:06:25;;;;;;;17.37;10.73;;;;;;;3.53;87.26;96544.53;5092645;28;20466;-39
2022/03/07 11:08:52;;;;;;;32.70;13.97;;;;;;;3.55;88.50;96537.25;5091872;28;20447;-37
2022/03/07 11:11:21;;;;;;;9.07;5.80;;;;;;;3.51;87.96;96536.03;5091875;28;20836;-38
2022/03/07 11:13:52;;;;;;;7.50;4.70;;;;;;;3.54;88.26;96529.56;5075542;28;20451;-39
2022/03/07 11:16:21;;;;;;;8.70;5.20;;;;;;;3.54;88.41;96525.13;5073511;28;20839;-38
2022/03/07 11:18:53;;;;;;;42.77;18.23;;;;;;;3.52;88.72;96524.53;5073454;28;20439;-38
2022/03/07 11:21:21;;;;;;;21.83;10.47;;;;;;;3.62;88.55;96526.78;5073378;28;20428;-39
2022/03/07 11:23:48;;;;;;;16.43;8.83;;;;;;;3.56;87.61;96523.13;5072995;28;20491;-39
2022/03/07 11:26:20;;;;;;;11.70;7.83;;;;;;;3.59;87.99;96522.75;5072960;28;20444;-39
2022/03/07 11:28:52;;;;;;;9.20;5.70;;;;;;;3.41;84.40;96525.91;5073066;28;20435;-38
2022/03/07 11:31:20;;;;;;;12.57;7.03;;;;;;;3.32;87.91;96531.53;5073333;28;20440;-38
2022/03/07 11:33:52;;;;;;;5.23;4.73;;;;;;;3.20;88.70;96529.44;5073014;28;20471;-38
2022/03/07 11:36:22;;;;;;;5.83;4.80;;;;;;;3.02;89.77;96502.97;5072915;28;20443;-38
2022/03/07 11:38:55;;;;;;;17.13;12.40;;;;;;;3.24;90.46;96517.56;5073000;28;20454;-38
2022/03/07 11:41:27;;;;;;;11.70;9.23;;;;;;;3.25;90.51;96516.56;5072874;28;20806;-38
2022/03/07 11:44:00;;;;;;;12.70;8.27;;;;;;;3.33;91.13;96520.03;5072701;28;20498;-38